Time;durP1;ratioP1;P1;durP2;ratioP2;P2;SDS_P1;SDS_P2;PMS_P1;PMS_P2;Temp;Humidity;BMP_temperature;BMP_pressure;BME280_temperature;BME280_humidity;BME280_pressure;Samples;Min_cycle;Max_cycle;Signal;HPM_P1;HPM_P2
2022/08/13 00:02:19;;;;;;;9.57;2.55;;;;;;;;;;4858121;29;20544;-72
2022/08/13 00:05:00;;;;;;;5.03;2.90;;;;;;;;;;4857460;29;20536;-71
2022/08/13 00:07:51;;;;;;;13.20;3.05;;;;;;;;;;4857031;29;20596;-74
2022/08/13 00:10:31;;;;;;;9.27;2.88;;;;;;;;;;4857493;29;20046;-71
2022/08/13 00:13:03;;;;;;;6.68;2.88;;;;;;;;;;4857824;29;20057;-72
2022/08/13 00:15:38;;;;;;;5.85;2.60;;;;;;;;;;4857484;29;20397;-72
2022/08/13 00:18:12;;;;;;;7.63;2.83;;;;;;;;;;4857527;29;20803;-72
2022/08/13 00:21:02;;;;;;;6.47;3.10;;;;;;;;;;4857244;29;20068;-72
2022/08/13 00:23:43;;;;;;;6.60;2.97;;;;;;;;;;4855920;29;20049;-73
2022/08/13 00:40:57;;;;;;;10.30;3.55;;;;;;;;;;4857742;29;20053;-71
2022/08/13 00:44:28;;;;;;;11.50;4.15;;;;;;;;;;5176092;23;20061;-72
2022/08/13 00:51:56;;;;;;;6.95;3.65;;;;;;;;;;4857347;29;20053;-73
2022/08/13 00:54:49;;;;;;;12.52;4.03;;;;;;;;;;4857464;29;20054;-72
2022/08/13 00:57:41;;;;;;;12.00;4.32;;;;;;;;;;4871921;29;20067;-72
2022/08/13 01:00:27;;;;;;;11.15;4.25;;;;;;;;;;4844413;29;20523;-72
2022/08/13 01:03:03;;;;;;;7.32;4.18;;;;;;;;;;4872012;29;20091;-73
2022/08/13 01:05:47;;;;;;;9.40;4.20;;;;;;;;;;4872306;29;20593;-72
2022/08/13 01:08:19;;;;;;;9.77;4.45;;;;;;;;;;4871614;29;20440;-72
2022/08/13 01:11:01;;;;;;;8.77;4.82;;;;;;;;;;4871893;29;20057;-71
2022/08/13 01:13:34;;;;;;;8.30;4.10;;;;;;;;;;4870971;29;20061;-72
2022/08/13 01:16:13;;;;;;;10.95;4.93;;;;;;;;;;4872776;29;20069;-72
2022/08/13 01:18:49;;;;;;;10.27;5.00;;;;;;;;;;4872638;29;20097;-71
2022/08/13 01:21:25;;;;;;;9.60;4.55;;;;;;;;;;4872695;29;20473;-71
2022/08/13 01:24:11;;;;;;;;;;;;;;;;;;4873615;29;20500;-72
2022/08/13 01:26:42;;;;;;;9.50;4.35;;;;;;;;;;4872924;29;19932;-72
2022/08/13 01:29:18;;;;;;;10.68;4.75;;;;;;;;;;4872605;29;20073;-73
2022/08/13 01:31:51;;;;;;;14.98;5.03;;;;;;;;;;4872535;29;20060;-73
2022/08/13 01:34:22;;;;;;;12.73;4.72;;;;;;;;;;4867783;29;20061;-72
2022/08/13 01:36:54;;;;;;;8.15;4.32;;;;;;;;;;4856259;29;20139;-73
2022/08/13 01:39:29;;;;;;;15.10;4.68;;;;;;;;;;4856258;29;20048;-73
2022/08/13 01:42:16;;;;;;;9.63;4.43;;;;;;;;;;4856132;29;20523;-72
2022/08/13 01:44:48;;;;;;;9.02;4.50;;;;;;;;;;4856265;29;20054;-72
2022/08/13 01:50:30;;;;;;;9.45;4.45;;;;;;;;;;4844004;29;20537;-72
2022/08/13 01:53:11;;;;;;;9.65;4.75;;;;;;;;;;4857394;29;20425;-72
2022/08/13 01:55:54;;;;;;;13.55;5.32;;;;;;;;;;4855809;29;20061;-71
2022/08/13 01:58:47;;;;;;;9.93;4.78;;;;;;;;;;4854265;29;20088;-71
2022/08/13 02:01:37;;;;;;;9.55;4.63;;;;;;;;;;4856633;29;20053;-71
2022/08/13 02:04:15;;;;;;;9.38;4.70;;;;;;;;;;4856118;29;20057;-71
2022/08/13 02:06:54;;;;;;;10.48;5.00;;;;;;;;;;4855868;29;20053;-72
2022/08/13 02:09:24;;;;;;;13.88;5.63;;;;;;;;;;4856378;29;20054;-72
2022/08/13 02:12:15;;;;;;;11.38;5.10;;;;;;;;;;4855492;29;20061;-72
2022/08/13 02:15:05;;;;;;;11.68;5.65;;;;;;;;;;4855583;29;20056;-72
2022/08/13 02:17:41;;;;;;;13.85;5.78;;;;;;;;;;4855184;29;20057;-72
2022/08/13 02:20:34;;;;;;;10.85;5.32;;;;;;;;;;4855559;29;20409;-71
2022/08/13 02:23:08;;;;;;;11.25;5.20;;;;;;;;;;4855023;29;20066;-72
2022/08/13 02:25:38;;;;;;;11.50;4.95;;;;;;;;;;4855579;29;20065;-72
2022/08/13 02:28:10;;;;;;;11.20;5.25;;;;;;;;;;4855158;29;20057;-71
2022/08/13 02:30:56;;;;;;;8.88;4.80;;;;;;;;;;4855907;29;20053;-71
2022/08/13 02:33:26;;;;;;;8.93;5.10;;;;;;;;;;4855584;29;20057;-71
2022/08/13 02:36:11;;;;;;;9.60;4.75;;;;;;;;;;4855280;29;20062;-71
2022/08/13 02:38:42;;;;;;;9.68;4.63;;;;;;;;;;4855169;29;20896;-71
2022/08/13 02:44:04;;;;;;;11.07;4.97;;;;;;;;;;4854625;29;20057;-71
2022/08/13 02:46:49;;;;;;;7.65;4.28;;;;;;;;;;4854599;29;20404;-72
2022/08/13 02:49:21;;;;;;;8.23;4.40;;;;;;;;;;4853506;29;20065;-71
2022/08/13 02:52:11;;;;;;;8.55;4.13;;;;;;;;;;4853467;29;20057;-72
2022/08/13 02:54:43;;;;;;;10.75;4.88;;;;;;;;;;4855437;29;20053;-71
2022/08/13 02:57:25;;;;;;;8.88;4.38;;;;;;;;;;4854676;29;20060;-73
2022/08/13 03:00:00;;;;;;;7.68;4.43;;;;;;;;;;4854547;29;20049;-71
2022/08/13 03:02:44;;;;;;;8.10;4.22;;;;;;;;;;4854876;29;20050;-72
2022/08/13 03:05:19;;;;;;;9.15;4.00;;;;;;;;;;4854506;29;20540;-72
2022/08/13 03:07:58;;;;;;;7.95;3.90;;;;;;;;;;4854870;29;20061;-72
2022/08/13 03:10:32;;;;;;;9.35;3.40;;;;;;;;;;4852710;29;20084;-72
2022/08/13 03:13:15;;;;;;;;;;;;;;;;;;4854176;29;20417;-73
2022/08/13 03:15:53;;;;;;;10.82;3.60;;;;;;;;;;4854998;29;19927;-72
2022/08/13 03:18:31;;;;;;;;;;;;;;;;;;4855239;29;20052;-73
2022/08/13 03:21:28;;;;;;;11.23;3.35;;;;;;;;;;4854945;29;19928;-73
2022/08/13 03:24:14;;;;;;;7.25;3.55;;;;;;;;;;4854558;29;20509;-73
2022/08/13 03:27:01;;;;;;;11.18;3.42;;;;;;;;;;4854571;29;20042;-73
2022/08/13 03:29:31;;;;;;;7.25;3.45;;;;;;;;;;4855282;29;20060;-74
2022/08/13 03:32:25;;;;;;;5.78;2.85;;;;;;;;;;4854669;29;20053;-73
2022/08/13 03:35:00;;;;;;;5.93;3.05;;;;;;;;;;4854371;29;20061;-73
2022/08/13 03:37:40;;;;;;;6.30;3.20;;;;;;;;;;4854710;29;20061;-73
2022/08/13 03:40:12;;;;;;;6.40;2.72;;;;;;;;;;4855106;29;20053;-73
2022/08/13 03:42:50;;;;;;;4.85;2.75;;;;;;;;;;4854478;29;20056;-73
2022/08/13 03:45:24;;;;;;;6.20;3.30;;;;;;;;;;4855013;29;20084;-72
2022/08/13 03:47:56;;;;;;;5.03;2.60;;;;;;;;;;4854285;29;20072;-72
2022/08/13 03:50:27;;;;;;;6.57;2.78;;;;;;;;;;4854508;29;20052;-71
2022/08/13 03:53:03;;;;;;;6.88;2.95;;;;;;;;;;4854474;29;20054;-71
2022/08/13 03:55:34;;;;;;;5.43;2.55;;;;;;;;;;4854129;29;20049;-71
2022/08/13 03:58:15;;;;;;;8.02;2.80;;;;;;;;;;4853062;29;20066;-71
2022/08/13 04:00:50;;;;;;;6.22;2.40;;;;;;;;;;4854508;29;20049;-72
2022/08/13 04:03:29;;;;;;;8.70;3.13;;;;;;;;;;4854036;29;20057;-72
2022/08/13 04:06:01;;;;;;;7.93;2.65;;;;;;;;;;4854135;29;20052;-72
2022/08/13 04:08:36;;;;;;;6.93;2.72;;;;;;;;;;4854519;29;20061;-72
2022/08/13 04:11:12;;;;;;;8.25;2.85;;;;;;;;;;4854792;29;20064;-72
2022/08/13 04:13:50;;;;;;;7.03;2.83;;;;;;;;;;4857784;29;20057;-71
2022/08/13 04:16:42;;;;;;;4.70;2.55;;;;;;;;;;4858053;29;20045;-72
2022/08/13 04:19:14;;;;;;;7.97;2.22;;;;;;;;;;4855982;29;20689;-73
2022/08/13 04:21:48;;;;;;;4.00;2.22;;;;;;;;;;4857392;29;20045;-72
2022/08/13 04:24:19;;;;;;;4.30;2.30;;;;;;;;;;4857707;29;20420;-72
2022/08/13 04:26:58;;;;;;;6.60;2.38;;;;;;;;;;4857506;29;20518;-72
2022/08/13 04:29:29;;;;;;;8.63;2.80;;;;;;;;;;4857660;29;20053;-72
2022/08/13 04:32:22;;;;;;;4.97;2.20;;;;;;;;;;4857515;29;20052;-72
2022/08/13 04:34:54;;;;;;;5.47;2.08;;;;;;;;;;4857271;29;20064;-72
2022/08/13 04:37:27;;;;;;;4.55;2.20;;;;;;;;;;4857530;29;20061;-71
2022/08/13 04:40:14;;;;;;;4.68;2.03;;;;;;;;;;4856985;29;20038;-72
2022/08/13 04:42:59;;;;;;;4.47;2.00;;;;;;;;;;4857393;29;20045;-72
2022/08/13 04:45:34;;;;;;;5.32;2.60;;;;;;;;;;4856963;29;20118;-72
2022/08/13 04:48:10;;;;;;;3.30;1.60;;;;;;;;;;4857975;29;20049;-72
2022/08/13 04:50:47;;;;;;;5.47;1.98;;;;;;;;;;4857027;29;20050;-71
2022/08/13 04:53:28;;;;;;;4.10;1.63;;;;;;;;;;4856517;29;20410;-71
2022/08/13 04:56:01;;;;;;;6.63;2.10;;;;;;;;;;4856758;29;20054;-72
2022/08/13 04:58:41;;;;;;;4.10;2.00;;;;;;;;;;4856916;29;20053;-71
2022/08/13 05:01:13;;;;;;;3.28;1.70;;;;;;;;;;4857071;29;20058;-72
2022/08/13 05:04:03;;;;;;;3.15;1.58;;;;;;;;;;4856884;29;20049;-71
2022/08/13 05:06:52;;;;;;;3.33;1.50;;;;;;;;;;4856973;29;20056;-71
2022/08/13 05:09:21;;;;;;;3.83;1.73;;;;;;;;;;4856581;29;20053;-72
2022/08/13 05:11:59;;;;;;;5.97;1.77;;;;;;;;;;4857904;29;20052;-72
2022/08/13 05:14:35;;;;;;;6.53;2.22;;;;;;;;;;4857051;29;20053;-72
2022/08/13 05:17:07;;;;;;;3.30;1.50;;;;;;;;;;4856590;29;20041;-71
2022/08/13 05:19:45;;;;;;;4.25;1.92;;;;;;;;;;4857027;29;20053;-72
2022/08/13 05:22:21;;;;;;;3.95;1.38;;;;;;;;;;4856510;29;20052;-71
2022/08/13 05:24:57;;;;;;;4.85;1.52;;;;;;;;;;4856111;29;20057;-71
2022/08/13 05:27:48;;;;;;;4.28;1.48;;;;;;;;;;4856740;29;20060;-71
2022/08/13 05:30:19;;;;;;;5.43;1.60;;;;;;;;;;4856421;29;20041;-71
2022/08/13 05:33:02;;;;;;;2.83;1.27;;;;;;;;;;4856567;29;20042;-71
2022/08/13 05:35:48;;;;;;;1.90;1.15;;;;;;;;;;4856082;29;20528;-71
2022/08/13 05:38:39;;;;;;;4.50;1.50;;;;;;;;;;4856429;29;20054;-72
2022/08/13 05:41:14;;;;;;;4.10;1.50;;;;;;;;;;4854472;29;20061;-72
2022/08/13 05:43:45;;;;;;;4.53;1.17;;;;;;;;;;4855636;29;20536;-72
2022/08/13 05:46:23;;;;;;;4.60;1.60;;;;;;;;;;4856643;29;20053;-72
2022/08/13 05:48:58;;;;;;;3.97;1.52;;;;;;;;;;4855928;29;20524;-73
2022/08/13 05:51:29;;;;;;;;;;;;;;;;;;4856497;29;20060;-73
2022/08/13 05:54:19;;;;;;;2.50;1.10;;;;;;;;;;4856205;29;20466;-72
2022/08/13 05:57:09;;;;;;;14.38;1.75;;;;;;;;;;4856466;29;20065;-72
2022/08/13 06:05:31;;;;;;;2.67;1.00;;;;;;;;;;4855931;29;20049;-72
2022/08/13 06:08:15;;;;;;;4.00;1.30;;;;;;;;;;4855746;29;20060;-73
2022/08/13 06:11:11;;;;;;;2.83;1.08;;;;;;;;;;4855660;29;20053;-73
2022/08/13 06:13:48;;;;;;;3.00;1.10;;;;;;;;;;4855804;29;20057;-71
2022/08/13 06:16:36;;;;;;;2.85;1.42;;;;;;;;;;4855732;29;20053;-71
2022/08/13 06:19:26;;;;;;;4.65;1.10;;;;;;;;;;4855692;29;20068;-72
2022/08/13 06:22:04;;;;;;;7.32;0.98;;;;;;;;;;4855547;29;20057;-72
2022/08/13 06:24:40;;;;;;;2.67;1.13;;;;;;;;;;4855456;29;20060;-71
2022/08/13 06:27:23;;;;;;;5.80;1.23;;;;;;;;;;4855675;29;20493;-71
2022/08/13 06:30:18;;;;;;;7.20;2.35;;;;;;;;;;4855253;29;20061;-71
2022/08/13 06:33:02;;;;;;;1.75;0.75;;;;;;;;;;4854256;29;20045;-73
2022/08/13 06:35:57;;;;;;;1.02;0.90;;;;;;;;;;4854535;29;20504;-71
2022/08/13 06:38:43;;;;;;;2.92;0.98;;;;;;;;;;4855561;29;20049;-72
2022/08/13 06:41:21;;;;;;;3.45;1.00;;;;;;;;;;4855645;29;20061;-72
2022/08/13 06:43:53;;;;;;;2.25;0.90;;;;;;;;;;4854834;29;20330;-71
2022/08/13 06:46:31;;;;;;;2.72;0.90;;;;;;;;;;4855332;29;20053;-71
2022/08/13 06:49:03;;;;;;;3.10;0.98;;;;;;;;;;4855268;29;20501;-71
2022/08/13 06:51:35;;;;;;;4.50;1.20;;;;;;;;;;4855425;29;20054;-71
2022/08/13 06:54:10;;;;;;;3.53;0.88;;;;;;;;;;4855014;29;20046;-70
2022/08/13 06:56:58;;;;;;;2.65;0.90;;;;;;;;;;4855498;29;20060;-71
2022/08/13 06:59:50;;;;;;;3.22;1.00;;;;;;;;;;4855063;29;20421;-71
2022/08/13 07:02:42;;;;;;;3.58;0.80;;;;;;;;;;4855056;29;20057;-71
2022/08/13 07:05:13;;;;;;;3.10;0.90;;;;;;;;;;4855011;29;20057;-71
2022/08/13 07:07:55;;;;;;;6.18;1.35;;;;;;;;;;4854431;29;20060;-70
2022/08/13 07:10:35;;;;;;;5.72;1.20;;;;;;;;;;4856467;29;20430;-72
2022/08/13 07:13:06;;;;;;;2.40;0.90;;;;;;;;;;4873690;29;20053;-71
2022/08/13 07:15:56;;;;;;;3.97;0.82;;;;;;;;;;4875928;29;20046;-71
2022/08/13 07:18:28;;;;;;;5.68;0.77;;;;;;;;;;4875413;29;20045;-71
2022/08/13 07:21:10;;;;;;;3.90;0.95;;;;;;;;;;4874481;29;20054;-70
2022/08/13 07:23:42;;;;;;;3.03;1.10;;;;;;;;;;4873257;29;20042;-71
2022/08/13 07:26:36;;;;;;;3.55;0.93;;;;;;;;;;4854799;29;20516;-71
2022/08/13 07:29:12;;;;;;;2.65;1.08;;;;;;;;;;4855009;29;20053;-71
2022/08/13 07:31:43;;;;;;;3.80;1.02;;;;;;;;;;4854789;29;20068;-71
2022/08/13 07:34:35;;;;;;;3.83;0.90;;;;;;;;;;4855257;29;20057;-71
2022/08/13 07:37:09;;;;;;;3.47;0.95;;;;;;;;;;4855155;29;20058;-71
2022/08/13 07:39:41;;;;;;;2.33;0.85;;;;;;;;;;4854192;29;20057;-71
2022/08/13 07:42:23;;;;;;;4.05;1.17;;;;;;;;;;4855179;29;20053;-71
2022/08/13 07:44:59;;;;;;;3.08;1.02;;;;;;;;;;4854693;29;20065;-71
2022/08/13 07:47:54;;;;;;;2.17;0.60;;;;;;;;;;4858104;29;20052;-70
2022/08/13 07:50:45;;;;;;;2.60;0.80;;;;;;;;;;4858716;29;20066;-70
2022/08/13 07:53:37;;;;;;;1.17;0.75;;;;;;;;;;4858565;29;20053;-71
2022/08/13 07:56:31;;;;;;;1.65;0.80;;;;;;;;;;4859425;29;20053;-70
2022/08/13 07:59:09;;;;;;;1.85;0.90;;;;;;;;;;4879592;29;20045;-71
2022/08/13 08:01:54;;;;;;;2.08;0.88;;;;;;;;;;4869595;29;20041;-72
2022/08/13 08:04:45;;;;;;;1.85;0.55;;;;;;;;;;4860303;29;20068;-72
2022/08/13 08:07:25;;;;;;;3.42;0.80;;;;;;;;;;4859351;29;20049;-71
2022/08/13 08:10:15;;;;;;;3.45;0.90;;;;;;;;;;4878581;29;20055;-72
2022/08/13 08:12:47;;;;;;;1.73;0.90;;;;;;;;;;4858371;29;20050;-71
2022/08/13 08:15:24;;;;;;;1.88;0.90;;;;;;;;;;4857828;29;20061;-71
2022/08/13 08:18:14;;;;;;;2.38;0.90;;;;;;;;;;4857532;29;20049;-71
2022/08/13 08:21:09;;;;;;;4.70;0.90;;;;;;;;;;4858132;29;20057;-72
2022/08/13 08:24:03;;;;;;;1.75;0.88;;;;;;;;;;4856770;29;20512;-72
2022/08/13 08:26:52;;;;;;;2.83;0.75;;;;;;;;;;4857768;29;20053;-72
2022/08/13 08:29:23;;;;;;;2.58;0.70;;;;;;;;;;4857496;29;20060;-71
2022/08/13 08:32:09;;;;;;;1.20;0.70;;;;;;;;;;4857157;29;20045;-72
2022/08/13 08:34:45;;;;;;;2.58;0.98;;;;;;;;;;4857026;29;20042;-70
2022/08/13 08:43:29;;;;;;;1.10;0.70;;;;;;;;;;4857323;29;20061;-71
2022/08/13 08:46:17;;;;;;;1.77;0.80;;;;;;;;;;4857447;29;20050;-71
2022/08/13 08:48:48;;;;;;;3.67;0.75;;;;;;;;;;4855417;29;20064;-72
2022/08/13 08:51:24;;;;;;;;;;;;;;;;;;4857384;29;20378;-71
2022/08/13 08:53:55;;;;;;;1.77;1.05;;;;;;;;;;4857498;29;19944;-71
2022/08/13 08:56:42;;;;;;;3.80;1.35;;;;;;;;;;4857045;29;20037;-71
2022/08/13 08:59:46;;;;;;;1.80;1.27;;;;;;;;;;4855570;29;20053;-71
2022/08/13 09:02:24;;;;;;;5.07;1.98;;;;;;;;;;4857178;29;20048;-71
2022/08/13 09:04:56;;;;;;;4.00;2.30;;;;;;;;;;4857334;29;20065;-71
2022/08/13 09:07:30;;;;;;;7.53;3.00;;;;;;;;;;4857025;29;20050;-71
2022/08/13 09:10:04;;;;;;;6.63;3.40;;;;;;;;;;4856497;29;20053;-71
2022/08/13 09:12:40;;;;;;;7.15;2.92;;;;;;;;;;4856155;29;20064;-71
2022/08/13 09:15:13;;;;;;;8.15;3.47;;;;;;;;;;4856456;29;20053;-71
2022/08/13 09:17:45;;;;;;;6.45;3.60;;;;;;;;;;4856514;29;20528;-71
2022/08/13 09:20:20;;;;;;;5.80;3.70;;;;;;;;;;4856499;29;20049;-73
2022/08/13 09:23:08;;;;;;;7.88;3.35;;;;;;;;;;4856441;29;20049;-71
2022/08/13 09:25:55;;;;;;;9.48;4.28;;;;;;;;;;4856412;29;20061;-71
2022/08/13 09:28:26;;;;;;;7.60;3.72;;;;;;;;;;4856779;29;21185;-70
2022/08/13 09:31:06;;;;;;;9.23;3.83;;;;;;;;;;4855427;29;20061;-70
2022/08/13 09:33:47;;;;;;;7.28;4.40;;;;;;;;;;4855088;29;20054;-70
2022/08/13 09:36:30;;;;;;;9.50;4.40;;;;;;;;;;4855989;29;20041;-72
2022/08/13 09:39:00;;;;;;;10.45;5.28;;;;;;;;;;4856267;29;20053;-71
2022/08/13 09:41:46;;;;;;;9.55;4.70;;;;;;;;;;4856111;29;20053;-71
2022/08/13 09:44:17;;;;;;;12.07;5.60;;;;;;;;;;4855937;29;20057;-71
2022/08/13 09:46:48;;;;;;;7.75;4.53;;;;;;;;;;4856239;29;20057;-71
2022/08/13 09:49:21;;;;;;;9.18;4.80;;;;;;;;;;4856520;29;20066;-71
2022/08/13 09:52:11;;;;;;;9.68;4.22;;;;;;;;;;4856351;29;20045;-71
2022/08/13 09:54:48;;;;;;;7.63;4.40;;;;;;;;;;4856118;29;20065;-71
2022/08/13 09:57:20;;;;;;;7.68;4.43;;;;;;;;;;4855927;29;20413;-70
2022/08/13 09:59:53;;;;;;;7.25;4.15;;;;;;;;;;4855556;29;20057;-71
2022/08/13 10:02:26;;;;;;;11.57;4.25;;;;;;;;;;4856020;29;20400;-71
2022/08/13 10:04:57;;;;;;;9.70;4.70;;;;;;;;;;4855602;29;20065;-71
2022/08/13 10:07:27;;;;;;;9.57;4.57;;;;;;;;;;4855615;29;20053;-71
2022/08/13 10:09:57;;;;;;;7.75;3.90;;;;;;;;;;4855723;29;20065;-72
2022/08/13 10:12:47;;;;;;;6.97;3.95;;;;;;;;;;4855299;29;20057;-71
2022/08/13 10:15:20;;;;;;;7.97;3.90;;;;;;;;;;4855893;29;20064;-72
2022/08/13 10:17:55;;;;;;;6.28;3.78;;;;;;;;;;4855741;29;20045;-71
2022/08/13 10:20:36;;;;;;;7.10;3.35;;;;;;;;;;4855582;29;20049;-73
2022/08/13 10:23:14;;;;;;;6.93;2.90;;;;;;;;;;4854016;29;20077;-71
2022/08/13 10:25:46;;;;;;;7.18;2.42;;;;;;;;;;4855255;29;20045;-73
2022/08/13 10:28:25;;;;;;;7.88;3.08;;;;;;;;;;4853590;29;20057;-71
2022/08/13 10:31:08;;;;;;;7.57;2.50;;;;;;;;;;4855185;29;20053;-72
2022/08/13 10:33:59;;;;;;;3.28;1.63;;;;;;;;;;4855768;29;20050;-71
2022/08/13 10:36:33;;;;;;;3.58;1.83;;;;;;;;;;4854218;29;20413;-71
2022/08/13 10:39:06;;;;;;;2.85;1.50;;;;;;;;;;4854752;29;20053;-72
2022/08/13 10:41:44;;;;;;;4.68;1.42;;;;;;;;;;4853951;29;20056;-71
2022/08/13 10:44:31;;;;;;;5.63;1.38;;;;;;;;;;4854858;29;20532;-71
2022/08/13 10:47:04;;;;;;;3.40;1.30;;;;;;;;;;4853943;29;20057;-72
2022/08/13 10:49:35;;;;;;;7.35;1.63;;;;;;;;;;4853263;29;20061;-71
2022/08/13 10:52:06;;;;;;;6.32;2.50;;;;;;;;;;4855333;29;20041;-71
2022/08/13 10:54:36;;;;;;;3.38;1.45;;;;;;;;;;4855011;29;20061;-72
2022/08/13 10:57:08;;;;;;;2.67;1.25;;;;;;;;;;4854828;29;20057;-72
2022/08/13 10:59:45;;;;;;;5.25;1.15;;;;;;;;;;4855047;29;20076;-73
2022/08/13 11:02:15;;;;;;;1.58;1.30;;;;;;;;;;4854897;29;20053;-73
2022/08/13 11:04:48;;;;;;;2.90;0.88;;;;;;;;;;4852771;29;20076;-72
2022/08/13 11:07:22;;;;;;;6.68;1.15;;;;;;;;;;4853041;29;20050;-73
2022/08/13 11:09:54;;;;;;;5.20;0.90;;;;;;;;;;4852375;29;20049;-72
2022/08/13 11:12:24;;;;;;;3.53;0.90;;;;;;;;;;4854501;29;20050;-74
2022/08/13 11:14:55;;;;;;;2.72;0.90;;;;;;;;;;4855447;29;20060;-72
2022/08/13 11:17:25;;;;;;;2.53;0.80;;;;;;;;;;4855873;29;20505;-72
2022/08/13 11:20:19;;;;;;;8.35;1.98;;;;;;;;;;4854107;29;20061;-71
2022/08/13 11:22:54;;;;;;;3.45;0.80;;;;;;;;;;4854663;29;20057;-72
2022/08/13 11:25:24;;;;;;;4.38;0.80;;;;;;;;;;4854020;29;20418;-72
2022/08/13 11:28:15;;;;;;;7.05;1.25;;;;;;;;;;4852585;29;20057;-73
2022/08/13 11:30:48;;;;;;;3.78;1.00;;;;;;;;;;4854944;29;20627;-73
2022/08/13 11:33:20;;;;;;;3.88;0.80;;;;;;;;;;4854612;29;20060;-72
2022/08/13 11:36:10;;;;;;;5.78;1.52;;;;;;;;;;4855288;29;20060;-73
2022/08/13 11:38:43;;;;;;;5.32;0.82;;;;;;;;;;4854789;29;20060;-72
2022/08/13 11:41:15;;;;;;;10.07;1.50;;;;;;;;;;4854345;29;20072;-71
2022/08/13 11:43:48;;;;;;;1.80;1.05;;;;;;;;;;4854452;29;20061;-72
2022/08/13 11:46:26;;;;;;;3.88;0.88;;;;;;;;;;4855023;29;20053;-71
2022/08/13 11:48:56;;;;;;;1.88;0.80;;;;;;;;;;4854559;29;20529;-72
2022/08/13 11:51:39;;;;;;;3.90;1.02;;;;;;;;;;4854248;29;20054;-72
2022/08/13 11:54:24;;;;;;;5.65;1.10;;;;;;;;;;4854410;29;20041;-73
2022/08/13 11:57:02;;;;;;;3.72;0.75;;;;;;;;;;4853782;29;20064;-72
2022/08/13 11:59:42;;;;;;;4.97;1.35;;;;;;;;;;4854157;29;20156;-73
2022/08/13 12:02:23;;;;;;;6.05;2.30;;;;;;;;;;4853112;29;20045;-72
2022/08/13 12:04:58;;;;;;;4.68;1.25;;;;;;;;;;4854181;29;20057;-72
2022/08/13 12:07:39;;;;;;;10.85;1.63;;;;;;;;;;4853993;29;20053;-72
2022/08/13 12:10:16;;;;;;;;;;;;;;;;;;4854754;29;20060;-72
2022/08/13 12:13:07;;;;;;;2.67;0.95;;;;;;;;;;4853742;29;19939;-72
2022/08/13 12:15:38;;;;;;;5.15;1.00;;;;;;;;;;4853895;29;20069;-72
2022/08/13 12:18:29;;;;;;;3.08;0.93;;;;;;;;;;4853284;29;20050;-72
2022/08/13 12:21:00;;;;;;;18.33;2.00;;;;;;;;;;4854191;29;20060;-73
2022/08/13 12:23:33;;;;;;;2.80;1.13;;;;;;;;;;4852614;29;20510;-75
2022/08/13 12:26:07;;;;;;;4.82;0.98;;;;;;;;;;4852572;29;20054;-71
2022/08/13 12:28:40;;;;;;;5.10;1.10;;;;;;;;;;4851655;29;20057;-71
2022/08/13 12:31:09;;;;;;;5.45;1.55;;;;;;;;;;4851403;29;20050;-75
2022/08/13 12:33:41;;;;;;;6.15;0.93;;;;;;;;;;4853111;29;20060;-72
2022/08/13 12:36:13;;;;;;;5.53;1.20;;;;;;;;;;4854633;29;20099;-72
2022/08/13 12:38:47;;;;;;;2.55;1.00;;;;;;;;;;4854982;29;20049;-72
2022/08/13 12:41:29;;;;;;;1.70;0.85;;;;;;;;;;4854615;29;20056;-72
2022/08/13 12:44:11;;;;;;;4.28;1.15;;;;;;;;;;4853678;29;20062;-72
2022/08/13 12:47:01;;;;;;;2.17;1.02;;;;;;;;;;4854118;29;20498;-72
2022/08/13 12:49:32;;;;;;;3.72;0.80;;;;;;;;;;4854402;29;20071;-72
2022/08/13 12:52:22;;;;;;;7.55;1.10;;;;;;;;;;4853684;29;20592;-73
2022/08/13 12:55:01;;;;;;;7.35;1.15;;;;;;;;;;4853965;29;20057;-74
2022/08/13 12:57:43;;;;;;;10.23;1.10;;;;;;;;;;4854531;29;20417;-73
2022/08/13 13:00:33;;;;;;;8.50;3.80;;;;;;;;;;4854572;29;20413;-73
2022/08/13 13:03:07;;;;;;;3.72;1.00;;;;;;;;;;4854409;29;20049;-73
2022/08/13 13:05:47;;;;;;;1.95;0.80;;;;;;;;;;4854428;29;20058;-73
2022/08/13 13:08:26;;;;;;;3.97;1.00;;;;;;;;;;4854049;29;20053;-73
2022/08/13 13:11:08;;;;;;;3.72;0.90;;;;;;;;;;4853740;29;20050;-72
2022/08/13 13:13:48;;;;;;;5.30;1.38;;;;;;;;;;4854006;29;20057;-73
2022/08/13 13:16:35;;;;;;;14.75;1.73;;;;;;;;;;4853786;29;20053;-74
2022/08/13 13:19:10;;;;;;;7.85;0.98;;;;;;;;;;4853688;29;20049;-74
2022/08/13 13:21:45;;;;;;;8.18;1.70;;;;;;;;;;4853584;29;20045;-79
2022/08/13 13:24:19;;;;;;;2.42;0.70;;;;;;;;;;4852872;29;20053;-73
2022/08/13 13:26:54;;;;;;;9.75;2.55;;;;;;;;;;4852802;29;20056;-71
2022/08/13 13:29:39;;;;;;;11.43;1.65;;;;;;;;;;4852942;29;20060;-71
2022/08/13 13:32:14;;;;;;;6.57;1.45;;;;;;;;;;4852215;29;20060;-71
2022/08/13 13:35:05;;;;;;;7.43;1.35;;;;;;;;;;4853685;29;20042;-71
2022/08/13 13:37:55;;;;;;;8.23;1.50;;;;;;;;;;4853932;29;20053;-71
2022/08/13 13:40:43;;;;;;;4.25;0.90;;;;;;;;;;4853743;29;20058;-70
2022/08/13 13:43:17;;;;;;;7.20;1.73;;;;;;;;;;4851498;29;20057;-73
2022/08/13 13:45:58;;;;;;;5.47;1.23;;;;;;;;;;4852646;29;20064;-71
2022/08/13 13:48:40;;;;;;;3.88;1.20;;;;;;;;;;4854197;29;20056;-70
2022/08/13 13:51:13;;;;;;;14.77;1.70;;;;;;;;;;4854517;29;20038;-69
2022/08/13 13:53:49;;;;;;;6.25;1.33;;;;;;;;;;4852739;29;20053;-70
2022/08/13 13:56:39;;;;;;;4.78;1.27;;;;;;;;;;4853370;29;20054;-69
2022/08/13 13:59:11;;;;;;;2.13;1.10;;;;;;;;;;4853128;29;20053;-68
2022/08/13 14:01:48;;;;;;;2.70;0.93;;;;;;;;;;4852831;29;20061;-71
2022/08/13 14:04:21;;;;;;;2.45;1.05;;;;;;;;;;4853511;29;20056;-71
2022/08/13 14:07:05;;;;;;;4.20;1.27;;;;;;;;;;4852357;29;20052;-71
2022/08/13 14:09:56;;;;;;;3.08;0.80;;;;;;;;;;4852494;29;20057;-72
2022/08/13 14:12:31;;;;;;;2.08;0.90;;;;;;;;;;4852747;29;20072;-71
2022/08/13 14:15:22;;;;;;;2.47;0.82;;;;;;;;;;4853936;29;21215;-70
2022/08/13 14:17:56;;;;;;;3.88;0.88;;;;;;;;;;4854216;29;20052;-71
2022/08/13 14:20:53;;;;;;;4.45;1.13;;;;;;;;;;4854154;29;20549;-73
2022/08/13 14:23:27;;;;;;;2.10;0.80;;;;;;;;;;4852751;29;20049;-71
2022/08/13 14:26:08;;;;;;;5.72;1.02;;;;;;;;;;4852297;29;20061;-70
2022/08/13 14:28:43;;;;;;;6.10;1.20;;;;;;;;;;4852819;29;20053;-70
2022/08/13 14:31:15;;;;;;;3.92;1.10;;;;;;;;;;4852825;29;20057;-71
2022/08/13 14:33:46;;;;;;;1.90;0.90;;;;;;;;;;4853019;29;20064;-73
2022/08/13 14:36:28;;;;;;;4.13;1.00;;;;;;;;;;4852159;29;20104;-71
2022/08/13 14:39:02;;;;;;;5.40;1.25;;;;;;;;;;4852783;29;20053;-75
2022/08/13 14:41:49;;;;;;;8.05;1.40;;;;;;;;;;4852155;29;20057;-70
2022/08/13 14:44:20;;;;;;;2.35;1.00;;;;;;;;;;4852239;29;20662;-69
2022/08/13 14:47:11;;;;;;;6.38;1.10;;;;;;;;;;4852409;29;20061;-70
2022/08/13 14:49:42;;;;;;;7.80;1.15;;;;;;;;;;4850098;29;20069;-70
2022/08/13 14:52:27;;;;;;;5.05;0.73;;;;;;;;;;4851596;29;20510;-71
2022/08/13 14:55:21;;;;;;;7.68;1.13;;;;;;;;;;4851211;29;21095;-72
2022/08/13 14:57:54;;;;;;;3.42;1.02;;;;;;;;;;4851789;29;20686;-71
2022/08/13 15:00:47;;;;;;;11.50;1.70;;;;;;;;;;4852068;29;20061;-72
2022/08/13 15:03:17;;;;;;;4.38;1.05;;;;;;;;;;4852227;29;20061;-74
2022/08/13 15:05:49;;;;;;;4.45;1.00;;;;;;;;;;4851432;29;20532;-73
2022/08/13 15:08:30;;;;;;;2.28;1.30;;;;;;;;;;4851048;29;20049;-73
2022/08/13 15:11:03;;;;;;;10.95;2.95;;;;;;;;;;4851842;29;20045;-73
2022/08/13 15:13:46;;;;;;;5.10;2.08;;;;;;;;;;4850464;29;20525;-74
2022/08/13 15:16:27;;;;;;;4.32;1.20;;;;;;;;;;4852486;29;20612;-73
2022/08/13 15:18:59;;;;;;;3.13;1.08;;;;;;;;;;4852047;29;20580;-73
2022/08/13 15:21:31;;;;;;;4.50;1.13;;;;;;;;;;4852769;29;20047;-73
2022/08/13 15:24:32;;;;;;;4.57;1.17;;;;;;;;;;4852210;29;20056;-73
2022/08/13 15:27:22;;;;;;;2.72;1.13;;;;;;;;;;4852130;29;20525;-72
2022/08/13 15:29:56;;;;;;;2.80;1.30;;;;;;;;;;4854017;29;20068;-73
2022/08/13 15:32:28;;;;;;;5.15;1.55;;;;;;;;;;4853335;29;20049;-73
2022/08/13 15:35:05;;;;;;;7.20;1.50;;;;;;;;;;4853444;29;20054;-74
2022/08/13 15:37:37;;;;;;;3.38;1.33;;;;;;;;;;4851378;29;20056;-74
2022/08/13 15:40:26;;;;;;;5.10;1.33;;;;;;;;;;4850129;29;20058;-75
2022/08/13 15:43:05;;;;;;;3.08;1.42;;;;;;;;;;4852011;29;20060;-75
2022/08/13 15:45:44;;;;;;;2.30;1.13;;;;;;;;;;4852294;29;20060;-74
2022/08/13 15:48:25;;;;;;;7.07;1.48;;;;;;;;;;4850824;29;20057;-73
2022/08/13 15:50:58;;;;;;;3.08;1.35;;;;;;;;;;4853977;29;20052;-73
2022/08/13 15:53:30;;;;;;;2.58;1.23;;;;;;;;;;4853796;29;20532;-74
2022/08/13 15:56:01;;;;;;;6.43;2.03;;;;;;;;;;4855853;29;20058;-73
2022/08/13 15:58:31;;;;;;;2.65;1.45;;;;;;;;;;4863259;29;20053;-73
2022/08/13 16:01:04;;;;;;;3.22;1.65;;;;;;;;;;4860228;29;20049;-73
2022/08/13 16:03:53;;;;;;;3.08;1.70;;;;;;;;;;4863203;29;20061;-75
2022/08/13 16:06:29;;;;;;;5.97;1.67;;;;;;;;;;4863164;29;20061;-72
2022/08/13 16:09:10;;;;;;;4.15;1.70;;;;;;;;;;4857017;29;20046;-73
2022/08/13 16:11:47;;;;;;;3.25;1.83;;;;;;;;;;4858200;29;20053;-73
2022/08/13 16:14:19;;;;;;;3.85;1.77;;;;;;;;;;4858146;29;20053;-73
2022/08/13 16:16:52;;;;;;;3.40;1.40;;;;;;;;;;4859816;29;20041;-72
2022/08/13 16:19:24;;;;;;;5.25;1.77;;;;;;;;;;4857453;29;20049;-75
2022/08/13 16:22:18;;;;;;;3.95;1.77;;;;;;;;;;4857199;29;20076;-72
2022/08/13 16:24:49;;;;;;;2.65;1.83;;;;;;;;;;4858024;29;20057;-71
2022/08/13 16:27:22;;;;;;;7.35;2.00;;;;;;;;;;4857420;29;20532;-73
2022/08/13 16:29:59;;;;;;;5.93;1.90;;;;;;;;;;4856084;29;20053;-72
2022/08/13 16:32:35;;;;;;;4.65;1.92;;;;;;;;;;4857842;29;20056;-72